createdAt,value
2017-09-18T00:01:58.638Z,99.90
2017-09-18T00:04:26.925Z,99.90
2017-09-18T00:06:55.208Z,99.90
2017-09-18T00:09:22.755Z,99.90
2017-09-18T00:11:51.044Z,99.90
2017-09-18T00:14:18.567Z,99.90
2017-09-18T00:16:46.192Z,99.90
2017-09-18T00:19:13.726Z,99.90
2017-09-18T00:21:41.250Z,99.90
2017-09-18T00:24:08.812Z,99.90
2017-09-18T00:26:36.388Z,99.90
2017-09-18T00:29:04.700Z,99.90
2017-09-18T00:31:32.242Z,99.90
2017-09-18T00:33:59.770Z,99.90
2017-09-18T00:36:27.293Z,99.90
2017-09-18T00:38:54.834Z,99.90
2017-09-18T00:41:22.426Z,99.90
2017-09-18T00:43:49.949Z,99.90
2017-09-18T00:46:17.541Z,99.90
2017-09-18T00:48:45.115Z,99.90
2017-09-18T00:51:13.019Z,99.90
2017-09-18T00:53:41.325Z,99.90
2017-09-18T00:56:08.845Z,99.90
2017-09-18T00:58:38.058Z,99.90
2017-09-18T01:01:06.089Z,99.90
2017-09-18T01:03:33.739Z,99.90
2017-09-18T01:06:01.344Z,99.90
2017-09-18T01:08:29.822Z,99.90
2017-09-18T01:10:58.112Z,99.90
2017-09-18T01:13:25.638Z,99.90
2017-09-18T01:15:53.202Z,99.90
2017-09-18T01:18:21.500Z,99.90
2017-09-18T01:20:49.790Z,99.90
2017-09-18T01:23:17.330Z,99.90
2017-09-18T01:25:45.630Z,99.90
2017-09-18T01:28:13.150Z,99.90
2017-09-18T01:30:40.701Z,99.90
2017-09-18T01:33:09.250Z,99.90
2017-09-18T01:35:36.810Z,99.90
2017-09-18T01:38:04.365Z,99.90
2017-09-18T01:40:31.886Z,99.90
2017-09-18T01:43:00.225Z,99.90
2017-09-18T01:45:27.781Z,99.90
2017-09-18T01:47:55.305Z,99.90
2017-09-18T01:50:22.866Z,99.90
2017-09-18T01:52:50.443Z,99.90
2017-09-18T01:55:17.962Z,99.90
2017-09-18T01:57:46.249Z,99.90
2017-09-18T02:00:14.553Z,99.90
2017-09-18T02:02:42.075Z,99.90
2017-09-18T02:05:11.290Z,99.90
2017-09-18T02:07:38.872Z,99.90
2017-09-18T02:10:06.397Z,99.90
2017-09-18T02:12:34.714Z,99.90
2017-09-18T02:15:02.283Z,99.90
2017-09-18T02:17:29.804Z,99.90
2017-09-18T02:19:57.380Z,99.90
2017-09-18T02:22:24.992Z,99.90
2017-09-18T02:24:52.528Z,99.90
2017-09-18T02:27:20.046Z,99.90
2017-09-18T02:29:47.625Z,99.90
2017-09-18T02:32:15.154Z,99.90
2017-09-18T02:34:44.683Z,99.90
2017-09-18T02:37:12.294Z,99.90
2017-09-18T02:39:41.329Z,99.90
2017-09-18T02:42:09.835Z,99.90
2017-09-18T02:44:37.438Z,99.90
2017-09-18T02:47:05.113Z,99.90
2017-09-18T02:49:33.424Z,99.90
2017-09-18T02:52:01.037Z,99.90
2017-09-18T02:54:28.563Z,99.90
2017-09-18T02:56:56.109Z,99.90
2017-09-18T02:59:23.645Z,99.90
2017-09-18T03:01:51.933Z,99.90
2017-09-18T03:04:19.462Z,99.90
2017-09-18T03:06:47.865Z,99.90
2017-09-18T03:09:15.426Z,99.90
2017-09-18T03:11:43.005Z,99.90
2017-09-18T03:14:10.551Z,99.90
2017-09-18T03:16:38.073Z,99.90
2017-09-18T03:19:05.594Z,99.90
2017-09-18T03:21:33.150Z,99.90
2017-09-18T03:24:01.336Z,99.90
2017-09-18T03:26:28.978Z,99.90
2017-09-18T03:28:56.586Z,99.90
2017-09-18T03:31:24.136Z,99.90
2017-09-18T03:33:52.610Z,99.90
2017-09-18T03:36:20.154Z,99.90
2017-09-18T03:38:47.706Z,99.90
2017-09-18T03:41:16.153Z,99.90
2017-09-18T03:43:44.458Z,99.90
2017-09-18T03:46:12.490Z,99.90
2017-09-18T03:48:41.113Z,99.90
2017-09-18T03:51:08.658Z,99.90
2017-09-18T03:53:36.217Z,99.90
2017-09-18T03:56:03.791Z,99.90
2017-09-18T03:58:31.455Z,99.90
2017-09-18T04:00:58.981Z,99.90
2017-09-18T04:03:27.267Z,99.90
2017-09-18T04:05:55.633Z,99.90
2017-09-18T04:08:23.917Z,99.90
2017-09-18T04:10:52.209Z,99.90
2017-09-18T04:13:19.789Z,99.90
2017-09-18T04:15:48.149Z,99.90
2017-09-18T04:18:15.720Z,99.90
2017-09-18T04:20:44.020Z,99.90
2017-09-18T04:23:12.064Z,99.90
2017-09-18T04:25:39.668Z,99.90
2017-09-18T04:28:07.211Z,99.90
2017-09-18T04:30:34.806Z,99.90
2017-09-18T04:33:02.360Z,99.90
2017-09-18T04:35:29.902Z,99.90
2017-09-18T04:37:57.454Z,99.90
2017-09-18T04:40:24.978Z,99.90
2017-09-18T04:42:52.577Z,99.90
2017-09-18T04:45:20.095Z,99.90
2017-09-18T04:47:48.977Z,99.90
2017-09-18T04:50:18.218Z,99.90
2017-09-18T04:52:45.782Z,99.90
2017-09-18T04:55:13.350Z,99.90
2017-09-18T04:57:40.895Z,99.90
2017-09-18T05:00:08.442Z,99.90
2017-09-18T05:02:35.969Z,99.90
2017-09-18T05:05:04.282Z,99.90
2017-09-18T05:07:31.841Z,99.90
2017-09-18T05:09:59.433Z,99.90
2017-09-18T05:12:27.005Z,99.90
2017-09-18T05:14:54.908Z,99.90
2017-09-18T05:17:22.483Z,99.90
2017-09-18T05:19:50.060Z,99.90
2017-09-18T05:22:17.696Z,99.90
2017-09-18T05:24:45.370Z,99.90
2017-09-18T05:27:12.919Z,99.90
2017-09-18T05:29:40.510Z,99.90
2017-09-18T05:32:08.666Z,99.90
2017-09-18T05:34:36.205Z,99.90
2017-09-18T05:37:03.734Z,99.90
2017-09-18T05:39:32.060Z,99.90
2017-09-18T05:41:59.605Z,99.90
2017-09-18T05:44:27.130Z,99.90
2017-09-18T05:46:54.718Z,99.90
2017-09-18T05:49:22.258Z,99.90
2017-09-18T05:51:50.854Z,99.90
2017-09-18T05:54:20.107Z,99.90
2017-09-18T05:56:47.653Z,99.90
2017-09-18T05:59:15.937Z,99.90
2017-09-18T06:01:43.461Z,99.90
2017-09-18T06:04:11.022Z,99.90
2017-09-18T06:06:38.637Z,99.90
2017-09-18T06:09:06.965Z,99.90
2017-09-18T06:11:34.537Z,99.90
2017-09-18T06:14:02.065Z,99.90
2017-09-18T06:16:30.361Z,99.90
2017-09-18T06:18:57.901Z,99.90
2017-09-18T06:21:26.253Z,99.90
2017-09-18T06:23:53.776Z,99.90
2017-09-18T06:26:21.335Z,99.90
2017-09-18T06:28:48.937Z,99.90
2017-09-18T06:31:17.223Z,99.90
2017-09-18T06:33:45.551Z,99.90
2017-09-18T06:36:13.110Z,99.90
2017-09-18T06:38:40.658Z,99.90
2017-09-18T06:41:08.201Z,99.90
2017-09-18T06:43:35.726Z,99.90
2017-09-18T06:46:03.339Z,99.90
2017-09-18T06:48:30.902Z,99.90
2017-09-18T06:50:58.426Z,99.90
2017-09-18T06:53:26.722Z,99.90
2017-09-18T06:55:54.348Z,99.90
2017-09-18T06:58:22.862Z,99.90
2017-09-18T07:00:50.914Z,99.90
2017-09-18T07:03:19.234Z,99.90
2017-09-18T07:05:46.830Z,99.90
2017-09-18T07:08:14.350Z,99.90
2017-09-18T07:10:41.905Z,99.90
2017-09-18T07:13:09.445Z,99.90
2017-09-18T07:15:36.981Z,99.90
2017-09-18T07:18:05.268Z,99.90
2017-09-18T07:20:33.585Z,99.90
2017-09-18T07:23:01.143Z,99.90
2017-09-18T07:25:28.686Z,99.90
2017-09-18T07:27:56.217Z,99.90
2017-09-18T07:30:23.743Z,99.90
2017-09-18T07:32:51.386Z,99.90
2017-09-18T07:35:18.969Z,99.90
2017-09-18T07:37:46.502Z,99.90
2017-09-18T07:40:14.038Z,99.90
2017-09-18T07:42:42.364Z,99.90
2017-09-18T07:45:09.890Z,99.90
2017-09-18T07:47:37.426Z,99.90
2017-09-18T07:50:05.718Z,99.90
2017-09-18T07:52:33.304Z,99.90
2017-09-18T07:55:00.862Z,99.90
2017-09-18T07:57:28.385Z,99.90
2017-09-18T07:59:56.705Z,99.90
2017-09-18T08:02:24.245Z,99.90
2017-09-18T08:04:51.761Z,99.90
2017-09-18T08:07:19.325Z,99.90
2017-09-18T08:09:47.661Z,99.90
2017-09-18T08:12:15.209Z,99.90
2017-09-18T08:14:42.781Z,99.90
2017-09-18T08:17:11.589Z,99.90
2017-09-18T08:19:39.115Z,99.90
2017-09-18T08:22:06.642Z,99.90
2017-09-18T08:24:34.957Z,99.90
2017-09-18T08:27:02.477Z,99.90
2017-09-18T08:29:30.769Z,99.90
2017-09-18T08:31:58.309Z,99.90
2017-09-18T08:34:26.613Z,99.90
2017-09-18T08:36:55.830Z,99.90
2017-09-18T08:39:23.375Z,99.90
2017-09-18T08:41:50.944Z,99.90
2017-09-18T08:44:18.505Z,99.90
2017-09-18T08:46:46.063Z,99.90
2017-09-18T08:49:13.594Z,99.90
2017-09-18T08:51:41.877Z,99.90
2017-09-18T08:54:09.422Z,99.90
2017-09-18T08:56:38.374Z,99.90
2017-09-18T08:59:05.902Z,99.90
2017-09-18T09:01:33.486Z,99.90
2017-09-18T09:04:01.006Z,99.90
2017-09-18T09:06:28.533Z,99.90
2017-09-18T09:08:56.193Z,99.90
2017-09-18T09:11:24.529Z,99.90
2017-09-18T09:13:52.099Z,99.90
2017-09-18T09:16:19.637Z,99.90
2017-09-18T09:18:47.181Z,99.90
2017-09-18T09:21:15.487Z,99.90
2017-09-18T09:23:43.021Z,99.90
2017-09-18T09:26:11.307Z,99.90
2017-09-18T09:28:38.832Z,99.90
2017-09-18T09:31:06.373Z,99.90
2017-09-18T09:33:33.899Z,99.90
2017-09-18T09:36:01.425Z,99.90
2017-09-18T09:38:29.732Z,99.90
2017-09-18T09:40:57.293Z,99.90
2017-09-18T09:43:24.819Z,99.90
2017-09-18T09:45:53.232Z,99.90
2017-09-18T09:48:20.754Z,99.90
2017-09-18T09:50:49.040Z,99.90
2017-09-18T09:53:17.342Z,99.90
2017-09-18T09:55:44.864Z,99.90
2017-09-18T09:58:13.153Z,99.90
2017-09-18T10:00:41.461Z,99.90
2017-09-18T10:03:09.030Z,99.90
2017-09-18T10:05:36.562Z,99.90
2017-09-18T10:08:04.151Z,99.90
2017-09-18T10:10:31.684Z,99.90
2017-09-18T10:12:59.206Z,99.90
2017-09-18T10:15:26.837Z,99.90
2017-09-18T10:17:54.355Z,99.90
2017-09-18T10:20:21.938Z,99.90
2017-09-18T10:22:49.481Z,99.90
2017-09-18T10:25:17.129Z,99.90
2017-09-18T10:27:45.423Z,99.90
2017-09-18T10:30:12.995Z,99.90
2017-09-18T10:32:40.517Z,99.90
2017-09-18T10:35:08.809Z,99.90
2017-09-18T10:37:37.111Z,99.90
2017-09-18T10:40:05.400Z,99.90
2017-09-18T10:42:32.920Z,99.90
2017-09-18T10:45:01.330Z,99.90
2017-09-18T10:47:30.189Z,99.90
2017-09-18T10:49:59.428Z,99.90
2017-09-18T10:52:26.970Z,99.90
2017-09-18T10:54:54.538Z,99.90
2017-09-18T10:57:22.062Z,99.90
2017-09-18T10:59:50.474Z,99.90
2017-09-18T11:02:17.998Z,99.90
2017-09-18T11:04:46.314Z,99.90
2017-09-18T11:07:13.854Z,99.90
2017-09-18T11:09:41.389Z,99.90
2017-09-18T11:12:09.714Z,99.90
2017-09-18T11:14:37.249Z,99.90
2017-09-18T11:17:04.766Z,99.90
2017-09-18T11:19:32.282Z,98.60
2017-09-18T11:22:00.589Z,94.70
2017-09-18T11:24:28.107Z,94.10
2017-09-18T11:26:55.681Z,89.50
2017-09-18T11:29:23.217Z,74.80
2017-09-18T11:31:50.798Z,67.00
2017-09-18T11:34:18.323Z,65.20
2017-09-18T11:36:46.636Z,60.70
2017-09-18T11:39:14.646Z,60.60
2017-09-18T11:41:42.168Z,64.70
2017-09-18T11:44:09.704Z,67.40
2017-09-18T11:46:37.388Z,66.90
2017-09-18T11:49:05.594Z,70.90
2017-09-18T11:51:34.650Z,75.20
2017-09-18T11:54:02.177Z,74.60
2017-09-18T11:56:30.466Z,73.90
2017-09-18T11:58:58.057Z,73.80
2017-09-18T12:01:25.578Z,78.60
2017-09-18T12:03:53.888Z,88.70
2017-09-18T12:06:21.426Z,88.70
2017-09-18T12:08:49.028Z,91.70
2017-09-18T12:11:16.574Z,96.40
2017-09-18T12:13:44.113Z,99.90
2017-09-18T12:16:11.640Z,99.90
2017-09-18T12:18:39.161Z,99.90
2017-09-18T12:21:06.697Z,99.90
2017-09-18T12:23:34.217Z,99.90
2017-09-18T12:26:03.441Z,99.90
2017-09-18T12:28:30.976Z,99.90
2017-09-18T12:30:58.625Z,99.90
2017-09-18T12:33:26.265Z,99.90
2017-09-18T12:35:53.845Z,99.90
2017-09-18T12:38:21.367Z,99.90
2017-09-18T12:40:49.136Z,99.90
2017-09-18T12:43:16.719Z,99.90
2017-09-18T12:45:44.360Z,99.90
2017-09-18T12:48:11.915Z,99.90
2017-09-18T12:50:39.477Z,99.90
2017-09-18T12:53:07.010Z,99.90
2017-09-18T12:55:34.539Z,99.90
2017-09-18T12:58:04.614Z,99.90
2017-09-18T13:00:32.274Z,99.90
2017-09-18T13:02:59.810Z,99.90
2017-09-18T13:05:27.352Z,99.90
2017-09-18T13:07:54.917Z,96.60
2017-09-18T13:10:23.210Z,92.40
2017-09-18T13:12:50.850Z,92.30
2017-09-18T13:15:19.178Z,72.90
2017-09-18T13:17:46.730Z,72.70
2017-09-18T13:20:14.266Z,71.80
2017-09-18T13:22:41.796Z,69.30
2017-09-18T13:25:10.094Z,63.60
2017-09-18T13:27:38.517Z,64.20
2017-09-18T13:30:06.071Z,64.20
2017-09-18T13:32:33.693Z,67.80
2017-09-18T13:35:02.038Z,63.50
2017-09-18T13:37:29.557Z,63.50
2017-09-18T13:39:57.077Z,58.90
2017-09-18T13:42:25.382Z,51.20
2017-09-18T13:44:52.909Z,51.10
2017-09-18T13:47:21.197Z,53.10
2017-09-18T13:49:49.505Z,51.40
2017-09-18T13:52:17.039Z,51.40
2017-09-18T13:54:44.637Z,49.90
2017-09-18T13:57:12.190Z,47.50
2017-09-18T13:59:39.767Z,47.00
2017-09-18T14:02:07.308Z,46.10
2017-09-18T14:04:34.867Z,44.40
2017-09-18T14:07:03.162Z,45.40
2017-09-18T14:09:30.678Z,45.30
2017-09-18T14:11:58.235Z,45.70
2017-09-18T14:14:26.572Z,44.50
2017-09-18T14:16:54.248Z,44.40
2017-09-18T14:19:23.310Z,43.30
2017-09-18T14:21:50.862Z,43.30
2017-09-18T14:24:18.386Z,43.40
2017-09-18T14:26:46.698Z,42.30
2017-09-18T14:29:14.900Z,42.30
2017-09-18T14:31:42.538Z,41.50
2017-09-18T14:34:10.078Z,41.50
2017-09-18T14:36:37.605Z,41.80
2017-09-18T14:39:05.901Z,40.70
2017-09-18T14:41:33.442Z,40.70
2017-09-18T14:44:01.769Z,40.80
2017-09-18T14:46:29.337Z,40.70
2017-09-18T14:48:56.879Z,40.70
2017-09-18T14:51:24.397Z,41.40
2017-09-18T14:53:52.689Z,41.30
2017-09-18T14:56:20.251Z,41.30
2017-09-18T14:58:47.774Z,41.90
2017-09-18T15:01:15.384Z,42.00
2017-09-18T15:03:42.932Z,42.50
2017-09-18T15:06:10.461Z,44.90
2017-09-18T15:08:38.424Z,46.90
2017-09-18T15:11:05.556Z,49.30
2017-09-18T15:13:33.076Z,50.90
2017-09-18T15:16:00.602Z,53.00
2017-09-18T15:18:28.150Z,54.60
2017-09-18T15:20:55.674Z,55.30
2017-09-18T15:23:23.234Z,57.60
2017-09-18T15:25:50.774Z,58.60
2017-09-18T15:28:18.302Z,59.60
2017-09-18T15:30:45.826Z,60.20
2017-09-18T15:33:13.366Z,63.00
2017-09-18T15:35:40.891Z,65.30
2017-09-18T15:38:10.109Z,69.40
2017-09-18T15:40:37.653Z,69.30
2017-09-18T15:43:05.938Z,73.00
2017-09-18T15:45:33.593Z,72.90
2017-09-18T15:48:02.001Z,74.90
2017-09-18T15:50:29.563Z,74.30
2017-09-18T15:52:57.089Z,74.50
2017-09-18T15:55:25.390Z,76.90
2017-09-18T15:57:52.959Z,76.90
2017-09-18T16:00:20.514Z,77.90
2017-09-18T16:02:48.095Z,79.20
2017-09-18T16:05:15.613Z,82.00
2017-09-18T16:07:43.141Z,87.20
2017-09-18T16:10:11.280Z,88.50
2017-09-18T16:12:38.801Z,91.00
2017-09-18T16:15:07.110Z,90.80
2017-09-18T16:17:34.668Z,91.10
2017-09-18T16:20:02.191Z,91.50
2017-09-18T16:22:30.506Z,91.60
2017-09-18T16:24:58.046Z,91.60
2017-09-18T16:27:25.570Z,91.10
2017-09-18T16:29:53.867Z,93.20
2017-09-18T16:32:22.173Z,94.90
2017-09-18T16:34:49.697Z,94.90
2017-09-18T16:37:17.994Z,98.50
2017-09-18T16:39:45.533Z,98.50
2017-09-18T16:42:13.844Z,99.90
2017-09-18T16:44:41.365Z,99.90
2017-09-18T16:47:09.680Z,99.90
2017-09-18T16:49:37.205Z,99.90
2017-09-18T16:52:05.501Z,99.90
2017-09-18T16:54:33.042Z,99.90
2017-09-18T16:57:01.335Z,99.90
2017-09-18T16:59:28.857Z,99.90
2017-09-18T17:01:56.391Z,99.90
2017-09-18T17:04:23.920Z,99.90
2017-09-18T17:06:51.444Z,99.90
2017-09-18T17:09:19.751Z,99.90
2017-09-18T17:11:47.278Z,99.90
2017-09-18T17:14:15.574Z,99.90
2017-09-18T17:16:44.906Z,99.90
2017-09-18T17:19:12.429Z,99.90
2017-09-18T17:21:40.714Z,99.90
2017-09-18T17:24:09.022Z,99.90
2017-09-18T17:26:36.538Z,99.90
2017-09-18T17:29:04.826Z,99.90
2017-09-18T17:31:33.134Z,99.90
2017-09-18T17:34:00.722Z,99.90
2017-09-18T17:36:28.278Z,99.90
2017-09-18T17:38:55.909Z,99.90
2017-09-18T17:41:23.434Z,99.90
2017-09-18T17:43:51.722Z,99.90
2017-09-18T17:46:19.311Z,99.90
2017-09-18T17:48:46.838Z,99.90
2017-09-18T17:51:16.037Z,99.90
2017-09-18T17:53:44.441Z,99.90
2017-09-18T17:56:11.961Z,99.90
2017-09-18T17:58:40.253Z,99.90
2017-09-18T18:01:08.671Z,99.90
2017-09-18T18:03:36.211Z,99.90
2017-09-18T18:06:03.733Z,99.90
2017-09-18T18:08:31.277Z,99.90
2017-09-18T18:10:58.802Z,99.90
2017-09-18T18:13:26.362Z,99.90
2017-09-18T18:15:53.954Z,99.90
2017-09-18T18:18:21.471Z,99.90
2017-09-18T18:20:49.038Z,99.90
2017-09-18T18:23:17.027Z,99.90
2017-09-18T18:25:44.598Z,99.90
2017-09-18T18:28:12.226Z,99.90
2017-09-18T18:30:39.770Z,99.90
2017-09-18T18:33:07.604Z,99.90
2017-09-18T18:35:36.150Z,99.90
2017-09-18T18:38:03.706Z,99.90
2017-09-18T18:40:31.255Z,99.90
2017-09-18T18:42:58.778Z,99.90
2017-09-18T18:45:27.098Z,99.90
2017-09-18T18:47:54.636Z,99.90
2017-09-18T18:50:22.161Z,99.90
2017-09-18T18:52:49.721Z,99.90
2017-09-18T18:55:17.254Z,99.90
2017-09-18T18:57:44.782Z,99.90
2017-09-18T19:00:12.333Z,99.90
2017-09-18T19:02:39.879Z,99.90
2017-09-18T19:05:08.934Z,99.90
2017-09-18T19:07:36.485Z,99.90
2017-09-18T19:10:04.021Z,99.90
2017-09-18T19:12:31.540Z,99.90
2017-09-18T19:14:59.860Z,99.90
2017-09-18T19:17:27.415Z,99.90
2017-09-18T19:19:54.941Z,99.90
2017-09-18T19:22:23.872Z,99.90
2017-09-18T19:24:51.410Z,99.90
2017-09-18T19:27:20.805Z,99.90
2017-09-18T19:29:48.358Z,99.90
2017-09-18T19:32:16.672Z,99.90
2017-09-18T19:34:44.427Z,99.90
2017-09-18T19:37:12.046Z,99.90
2017-09-18T19:39:41.112Z,99.90
2017-09-18T19:42:08.770Z,99.90
2017-09-18T19:44:36.338Z,99.90
2017-09-18T19:47:03.884Z,99.90
2017-09-18T19:49:31.446Z,99.90
2017-09-18T19:51:59.040Z,99.90
2017-09-18T19:54:26.576Z,99.90
2017-09-18T19:56:54.109Z,99.90
2017-09-18T19:59:21.686Z,99.90
2017-09-18T20:01:49.252Z,99.90
2017-09-18T20:04:16.784Z,99.90
2017-09-18T20:06:44.344Z,99.90
2017-09-18T20:09:11.869Z,99.90
2017-09-18T20:11:40.174Z,99.90
2017-09-18T20:14:07.724Z,99.90
2017-09-18T20:16:35.287Z,99.90
2017-09-18T20:19:02.889Z,99.90
2017-09-18T20:21:30.439Z,99.90
2017-09-18T20:23:57.957Z,99.90
2017-09-18T20:26:25.477Z,99.90
2017-09-18T20:28:53.803Z,99.90
2017-09-18T20:31:21.413Z,99.90
2017-09-18T20:33:48.952Z,99.90
2017-09-18T20:36:16.502Z,99.90
2017-09-18T20:38:44.030Z,99.90
2017-09-18T20:41:11.570Z,99.90
2017-09-18T20:43:39.882Z,99.90
2017-09-18T20:46:07.526Z,99.90
2017-09-18T20:48:35.818Z,99.90
2017-09-18T20:51:03.366Z,99.90
2017-09-18T20:53:31.053Z,99.90
2017-09-18T20:55:58.582Z,99.90
2017-09-18T20:58:26.882Z,99.90
2017-09-18T21:00:54.474Z,99.90
2017-09-18T21:03:22.057Z,99.90
2017-09-18T21:05:49.875Z,99.90
2017-09-18T21:08:17.413Z,99.90
2017-09-18T21:10:44.945Z,99.90
2017-09-18T21:13:12.479Z,99.90
2017-09-18T21:15:40.045Z,99.90
2017-09-18T21:18:07.593Z,99.90
2017-09-18T21:20:35.131Z,99.90
2017-09-18T21:23:02.655Z,99.90
2017-09-18T21:25:30.944Z,99.90
2017-09-18T21:27:58.512Z,99.90
2017-09-18T21:30:26.044Z,99.90
2017-09-18T21:32:54.354Z,99.90
2017-09-18T21:35:22.014Z,99.90
2017-09-18T21:37:49.534Z,99.90
2017-09-18T21:40:17.054Z,99.90
2017-09-18T21:42:44.898Z,99.90
2017-09-18T21:45:12.678Z,99.90
2017-09-18T21:47:40.202Z,99.90
2017-09-18T21:50:08.509Z,99.90
2017-09-18T21:52:36.031Z,99.90
2017-09-18T21:55:04.325Z,99.90
2017-09-18T21:57:31.866Z,99.90
2017-09-18T22:00:00.182Z,99.90
2017-09-18T22:02:28.561Z,99.90
2017-09-18T22:04:56.100Z,99.90
2017-09-18T22:07:23.683Z,99.90
2017-09-18T22:09:51.205Z,99.90
2017-09-18T22:12:19.508Z,99.90
2017-09-18T22:14:47.097Z,99.90
2017-09-18T22:17:14.636Z,99.90
2017-09-18T22:19:42.171Z,99.90
2017-09-18T22:22:10.454Z,99.90
2017-09-18T22:24:38.025Z,99.90
2017-09-18T22:27:05.589Z,99.90
2017-09-18T22:29:33.110Z,99.90
2017-09-18T22:32:01.415Z,99.90
2017-09-18T22:34:29.330Z,99.90
2017-09-18T22:36:56.855Z,99.90
2017-09-18T22:39:24.374Z,99.90
2017-09-18T22:41:52.675Z,99.90
2017-09-18T22:44:20.201Z,99.90
2017-09-18T22:46:47.721Z,99.90
2017-09-18T22:49:15.452Z,99.90
2017-09-18T22:51:43.041Z,99.90
2017-09-18T22:54:10.601Z,99.90
2017-09-18T22:56:38.261Z,99.90
2017-09-18T22:59:05.782Z,99.90
2017-09-18T23:01:34.098Z,99.90
2017-09-18T23:04:01.642Z,99.90
2017-09-18T23:06:30.091Z,99.90
2017-09-18T23:08:58.373Z,99.90
2017-09-18T23:11:26.670Z,99.90
2017-09-18T23:13:54.193Z,99.90
2017-09-18T23:16:21.716Z,99.90
2017-09-18T23:18:49.255Z,99.90
2017-09-18T23:21:16.772Z,99.90
2017-09-18T23:23:44.385Z,99.90
2017-09-18T23:26:12.035Z,99.90
2017-09-18T23:28:39.559Z,99.90
2017-09-18T23:31:07.851Z,99.90
2017-09-18T23:33:36.158Z,99.90
2017-09-18T23:36:03.716Z,99.90
2017-09-18T23:38:31.242Z,99.90
2017-09-18T23:40:59.561Z,99.90
2017-09-18T23:43:27.114Z,99.90
2017-09-18T23:45:54.645Z,99.90
2017-09-18T23:48:22.954Z,99.90
2017-09-18T23:50:50.482Z,99.90
2017-09-18T23:53:18.779Z,99.90
2017-09-18T23:55:46.386Z,99.90
2017-09-18T23:58:13.902Z,99.90
